Fort Walton Beach, FL

5:20 PM CST on February 08, 2016 (GMT -0600)
Forest Heights | | Change Station
CLOSE
Current Station
Personal Weather Station
Location: Fort Walton Beach, FL
Elevation: 72 ft
Nearby Weather Stations
Active Advisory: Wind Advisory

Elev 72 ft 30.46 °N, 86.63 °W | Updated 4 minutes ago

Partly Cloudy
Partly Cloudy
54.3 °F
Feels Like 54.3 °F
N
3.7
Wind Variable Wind from WNW

Today
High -- | Low -- °F
--% Chance of Precip.
Yesterday
High -- | Low -- °F
Precip. -- in
Pressure 29.87 in
Visibility 10.0 miles
Clouds Clear
Dew Point 25 °F
Humidity 32%
Rainfall 0.00 in
Snow Depth Not available.
6:33 AM 5:28 PM
New Moon, 0% visible
METAR KHRT 082258Z AUTO 31012G22KT 10SM CLR 13/M08 A2986 RMK AO2 PK WND 30026/01 SLP113 T01331078 $
Pressure 29.87 in
Visibility 10.0 miles
Clouds Clear
Dew Point 25 °F
Humidity 32%
Rainfall 0.00 in
Snow Depth Not available.
6:33 AM 5:28 PM
New Moon, 0% visible
METAR KHRT 082258Z AUTO 31012G22KT 10SM CLR 13/M08 A2986 RMK AO2 PK WND 30026/01 SLP113 T01331078 $

10-Day Weather Forecast

Almanac

Astronomy

Feb. 08, 2016 Rise Set
Actual Time
Civil Twilight
Nautical Twilight
Astronomical Twilight
Moon
Length of Visible Light
Length of Day
Tomorrow will be .
, % of the Moon is Illuminated

Today's Extremes

State Highs State Lows

Community

WunderPhotos

Upload Photos

1,891,525 photos uploaded!

WunderBlog® & News

Nearby

Air Quality

  Air Quality AQ Index Pollutant
Not available.

Snow Depth

Station Depth Elevation

Earthquake Activity

City Distance Mag. Time & Date
Minimum magnitude displayed is 2.5.

Coastal Water Temperatures

Place Temperature

Stations

Nearby Weather Stations

Station Location Temp. Windchill Dew Point Humidity Wind Precip. Elev Updated Type
                   

Watches & Warnings

Wind Advisory
Issued: 1:43 PM CST Feb. 8, 2016 – National Weather Service

... Wind Advisory remains in effect until 6 am CST Tuesday...

* timing... through tonight.

* Winds... northwest 25 to 30 mph... with frequent higher gusts in
excess of 35 mph likely.

Precautionary/preparedness actions...

A Wind Advisory means that winds of 30 to 39 mph are expected.
Winds this strong can make driving difficult... especially for
high profile vehicles. Use extra caution.